MSC Luisa — H9XU — position and weather

sailwx.info

Track history (hours):
 
Tides and Currents Weather Stations Pressure Air Temp Water Temp Dewpoint Dewpoint Depression Visibility Wind Speed Wind Dir Waves Ship Positions

MSC Luisa

Last reported at 2018-Apr-24 04:48 UTC. Time now 2018-Apr-25 01:02 UTC.
Position S 39°12' E 146°16'.

Length 300 m; draft 10.5 m.

Type: Ship. MMSI: 355308000.

Date/timePositionNaut miles runAvg speedWind from/ knotsBaromVisibWave heightAir tempDewpointWater temp
2018-Apr-24 04:48S 39°12' E 146°16'21 9.7
2018-Apr-24 02:39S 39°06' E 146°42'210.3
2018-Apr-24 02:30S 39°06' E 146°44'510.2
2018-Apr-24 02:00S 39°04' E 146°50'510.0
2018-Apr-24 01:30S 39°03' E 146°56'10 9.8
2018-Apr-24 00:30S 38°59' E 147°08'5 9.5
2018-Apr-24 00:00S 38°58' E 147°14'5 9.5
2018-Apr-23 23:28S 38°56' E 147°20'4 9.3
2018-Apr-23 23:00S 38°55' E 147°25'5 9.4
2018-Apr-23 22:31S 38°54' E 147°31'5 9.4
2018-Apr-23 22:01S 38°52' E 147°37'5 9.4
2018-Apr-23 21:30S 38°51' E 147°43'5 9.1
2018-Apr-23 21:00S 38°50' E 147°48'5 9.4
2018-Apr-23 20:30S 38°48' E 147°54'5 9.5
2018-Apr-23 20:00S 38°46' E 147°60'5 9.9
2018-Apr-23 19:30S 38°45' E 148°06'510.2
2018-Apr-23 19:00S 38°43' E 148°12'710.4
2018-Apr-23 18:21S 38°39' E 148°19'4 9.8
2018-Apr-23 17:58S 38°37' E 148°23'5 9.5
2018-Apr-23 17:28S 38°33' E 148°27'4 9.0
2018-Apr-23 17:01S 38°31' E 148°31'5 9.0
2018-Apr-23 16:30S 38°28' E 148°36'5 9.3
2018-Apr-23 16:00S 38°25' E 148°41'5 9.5
2018-Apr-23 15:30S 38°23' E 148°46'5 9.6
2018-Apr-23 15:00S 38°20' E 148°51'5 9.5
2018-Apr-23 14:30S 38°17' E 148°56'5 9.6
2018-Apr-23 14:00S 38°15' E 149°01'5 9.8
2018-Apr-23 13:30S 38°12' E 149°06'5 9.8
2018-Apr-23 13:00S 38°09' E 149°11'5 9.8
2018-Apr-23 12:27S 38°06' E 149°17'1110.1
2018-Apr-23 11:22S 38°00' E 149°28'410.1
2018-Apr-23 11:00S 37°58' E 149°32'510.0
2018-Apr-23 10:29S 37°55' E 149°38'5 9.9
2018-Apr-23 09:58S 37°52' E 149°43'4 9.8
2018-Apr-23 09:30S 37°50' E 149°48'6 9.5
2018-Apr-23 08:50S 37°46' E 149°54'  
2018-Apr-19 09:54S 34°02' E 151°19'4 9.5
2018-Apr-19 09:31S 34°04' E 151°23'22215.2
2018-Apr-18 18:55S 37°39' E 150°15'615.1
2018-Apr-18 18:30S 37°43' E 150°09'815.3
2018-Apr-18 17:59S 37°48' E 150°01'916.0
2018-Apr-18 17:27S 37°54' E 149°52'716.0
2018-Apr-18 17:00S 37°58' E 149°45'816.2
2018-Apr-18 16:29S 38°03' E 149°37'815.8
2018-Apr-18 16:00S 38°08' E 149°29'816.0
2018-Apr-18 15:30S 38°13' E 149°21'1016.4
2018-Apr-18 14:54S 38°18' E 149°11'616.0
2018-Apr-18 14:30S 38°22' E 149°05'916.5
2018-Apr-18 13:58S 38°28' E 148°56'816.3
2018-Apr-18 13:30S 38°32' E 148°48'816.5
2018-Apr-18 13:00S 38°37' E 148°39'816.6
2018-Apr-18 12:30S 38°41' E 148°30'1016.3
2018-Apr-18 11:53S 38°45' E 148°18'615.0
2018-Apr-18 11:28S 38°47' E 148°11'1715.7
2018-Apr-18 10:24S 38°52' E 147°50'616.1
2018-Apr-18 10:00S 38°54' E 147°42'1416.2
2018-Apr-18 09:09S 38°58' E 147°25'216.4
2018-Apr-18 09:00S 38°59' E 147°22'916.7
2018-Apr-18 08:28S 39°02' E 147°11'816.8
2018-Apr-18 08:00S 39°04' E 147°02'816.9
2018-Apr-18 07:30S 39°09' E 146°53'1016.6
2018-Apr-18 06:54S 39°14' E 146°41'716.3
2018-Apr-18 06:28S 39°17' E 146°33'  
Track history (hours):
 
Tides and Currents Weather Stations Pressure Air Temp Water Temp Dewpoint Dewpoint Depression Visibility Wind Speed Wind Dir Waves Ship Positions

MSC Luisa

Last reported at 2018-Apr-24 04:48 UTC. Time now 2018-Apr-25 01:02 UTC.
Position S 39°12' E 146°16'.

Length 300 m; draft 10.5 m.

Type: Ship. MMSI: 355308000.

Date/timePositionNaut miles runAvg speedWind from/ knotsBaromVisibWave heightAir tempDewpointWater temp
2018-Apr-24 04:48S 39°12' E 146°16'21 9.7
2018-Apr-24 02:39S 39°06' E 146°42'210.3
2018-Apr-24 02:30S 39°06' E 146°44'510.2
2018-Apr-24 02:00S 39°04' E 146°50'510.0
2018-Apr-24 01:30S 39°03' E 146°56'10 9.8
2018-Apr-24 00:30S 38°59' E 147°08'5 9.5
2018-Apr-24 00:00S 38°58' E 147°14'5 9.5
2018-Apr-23 23:28S 38°56' E 147°20'4 9.3
2018-Apr-23 23:00S 38°55' E 147°25'5 9.4
2018-Apr-23 22:31S 38°54' E 147°31'5 9.4
2018-Apr-23 22:01S 38°52' E 147°37'5 9.4
2018-Apr-23 21:30S 38°51' E 147°43'5 9.1
2018-Apr-23 21:00S 38°50' E 147°48'5 9.4
2018-Apr-23 20:30S 38°48' E 147°54'5 9.5
2018-Apr-23 20:00S 38°46' E 147°60'5 9.9
2018-Apr-23 19:30S 38°45' E 148°06'510.2
2018-Apr-23 19:00S 38°43' E 148°12'710.4
2018-Apr-23 18:21S 38°39' E 148°19'4 9.8
2018-Apr-23 17:58S 38°37' E 148°23'5 9.5
2018-Apr-23 17:28S 38°33' E 148°27'4 9.0
2018-Apr-23 17:01S 38°31' E 148°31'5 9.0
2018-Apr-23 16:30S 38°28' E 148°36'5 9.3
2018-Apr-23 16:00S 38°25' E 148°41'5 9.5
2018-Apr-23 15:30S 38°23' E 148°46'5 9.6
2018-Apr-23 15:00S 38°20' E 148°51'5 9.5
2018-Apr-23 14:30S 38°17' E 148°56'5 9.6
2018-Apr-23 14:00S 38°15' E 149°01'5 9.8
2018-Apr-23 13:30S 38°12' E 149°06'5 9.8
2018-Apr-23 13:00S 38°09' E 149°11'5 9.8
2018-Apr-23 12:27S 38°06' E 149°17'1110.1
2018-Apr-23 11:22S 38°00' E 149°28'410.1
2018-Apr-23 11:00S 37°58' E 149°32'510.0
2018-Apr-23 10:29S 37°55' E 149°38'5 9.9
2018-Apr-23 09:58S 37°52' E 149°43'4 9.8
2018-Apr-23 09:30S 37°50' E 149°48'6 9.5
2018-Apr-23 08:50S 37°46' E 149°54'  
2018-Apr-19 09:54S 34°02' E 151°19'4 9.5
2018-Apr-19 09:31S 34°04' E 151°23'22215.2
2018-Apr-18 18:55S 37°39' E 150°15'615.1
2018-Apr-18 18:30S 37°43' E 150°09'815.3
2018-Apr-18 17:59S 37°48' E 150°01'916.0
2018-Apr-18 17:27S 37°54' E 149°52'716.0
2018-Apr-18 17:00S 37°58' E 149°45'816.2
2018-Apr-18 16:29S 38°03' E 149°37'815.8
2018-Apr-18 16:00S 38°08' E 149°29'816.0
2018-Apr-18 15:30S 38°13' E 149°21'1016.4
2018-Apr-18 14:54S 38°18' E 149°11'616.0
2018-Apr-18 14:30S 38°22' E 149°05'916.5
2018-Apr-18 13:58S 38°28' E 148°56'816.3
2018-Apr-18 13:30S 38°32' E 148°48'816.5
2018-Apr-18 13:00S 38°37' E 148°39'816.6
2018-Apr-18 12:30S 38°41' E 148°30'1016.3
2018-Apr-18 11:53S 38°45' E 148°18'615.0
2018-Apr-18 11:28S 38°47' E 148°11'1715.7
2018-Apr-18 10:24S 38°52' E 147°50'616.1
2018-Apr-18 10:00S 38°54' E 147°42'1416.2
2018-Apr-18 09:09S 38°58' E 147°25'216.4
2018-Apr-18 09:00S 38°59' E 147°22'916.7
2018-Apr-18 08:28S 39°02' E 147°11'816.8
2018-Apr-18 08:00S 39°04' E 147°02'816.9
2018-Apr-18 07:30S 39°09' E 146°53'1016.6
2018-Apr-18 06:54S 39°14' E 146°41'716.3
2018-Apr-18 06:28S 39°17' E 146°33'  

Dump ship's entire track history